createdAt,value
2022-11-15T00:01:33.663Z,12.33
2022-11-15T00:04:03.559Z,14.53
2022-11-15T00:06:31.627Z,12.87
2022-11-15T00:09:00.822Z,12.60
2022-11-15T00:11:33.410Z,12.97
2022-11-15T00:14:04.540Z,14.17
2022-11-15T00:16:32.744Z,15.97
2022-11-15T00:19:00.766Z,12.77
2022-11-15T00:21:30.442Z,11.07
2022-11-15T00:23:59.151Z,12.53
2022-11-15T00:26:27.538Z,12.43
2022-11-15T00:28:56.109Z,10.40
2022-11-15T00:31:26.038Z,12.20
2022-11-15T00:33:57.779Z,14.20
2022-11-15T00:36:25.973Z,15.77
2022-11-15T00:38:54.343Z,12.97
2022-11-15T00:41:22.801Z,12.73
2022-11-15T00:43:52.037Z,14.40
2022-11-15T00:46:20.403Z,11.73
2022-11-15T00:48:50.411Z,12.27
2022-11-15T00:51:19.614Z,11.90
2022-11-15T00:53:48.603Z,10.90
2022-11-15T00:56:18.537Z,11.83
2022-11-15T00:58:53.153Z,13.30
2022-11-15T01:01:21.311Z,12.10
2022-11-15T01:03:51.401Z,12.07
2022-11-15T01:06:19.641Z,10.50
2022-11-15T01:08:48.075Z,10.43
2022-11-15T01:11:16.498Z,13.53
2022-11-15T01:13:44.614Z,10.97
2022-11-15T01:16:15.891Z,12.27
2022-11-15T01:18:45.126Z,11.23
2022-11-15T01:21:16.548Z,13.70
2022-11-15T01:23:47.083Z,11.33
2022-11-15T01:26:17.730Z,9.93
2022-11-15T01:28:46.874Z,11.07
2022-11-15T01:31:16.916Z,7.97
2022-11-15T01:33:45.547Z,12.57
2022-11-15T01:36:17.036Z,10.70
2022-11-15T01:38:45.648Z,13.13
2022-11-15T01:41:19.903Z,13.63
2022-11-15T01:43:49.477Z,9.93
2022-11-15T01:46:27.090Z,10.30
2022-11-15T01:48:58.991Z,12.03
2022-11-15T01:51:33.126Z,12.63
2022-11-15T01:54:05.224Z,12.07
2022-11-15T01:56:38.733Z,9.40
2022-11-15T01:59:11.591Z,14.10
2022-11-15T02:01:40.166Z,11.33
2022-11-15T02:04:14.029Z,13.73
2022-11-15T02:06:46.880Z,13.07
2022-11-15T02:09:17.265Z,11.53
2022-11-15T02:11:47.512Z,14.17
2022-11-15T02:14:17.493Z,14.73
2022-11-15T02:16:56.883Z,12.53
2022-11-15T02:19:53.416Z,9.13
2022-11-15T02:22:39.442Z,11.00
2022-11-15T02:25:24.409Z,12.17
2022-11-15T02:28:32.771Z,9.50
2022-11-15T02:31:08.114Z,12.13
2022-11-15T02:33:47.301Z,11.90
2022-11-15T02:36:21.449Z,11.20
2022-11-15T02:39:01.341Z,13.03
2022-11-15T02:41:38.869Z,11.33
2022-11-15T02:44:11.538Z,12.53
2022-11-15T02:47:04.110Z,10.00
2022-11-15T02:49:36.396Z,10.63
2022-11-15T02:52:06.015Z,10.87
2022-11-15T02:54:36.379Z,11.57
2022-11-15T02:57:09.022Z,9.73
2022-11-15T03:00:16.570Z,14.20
2022-11-15T03:03:22.869Z,11.27
2022-11-15T03:05:59.633Z,10.27
2022-11-15T03:08:34.029Z,11.30
2022-11-15T03:11:09.590Z,9.13
2022-11-15T03:13:46.715Z,10.23
2022-11-15T03:16:23.346Z,11.73
2022-11-15T03:18:58.114Z,14.43
2022-11-15T03:21:30.451Z,10.07
2022-11-15T03:24:03.792Z,9.27
2022-11-15T03:26:34.054Z,9.33
2022-11-15T03:29:08.773Z,8.23
2022-11-15T03:31:51.722Z,8.97
2022-11-15T03:34:30.129Z,9.97
2022-11-15T03:36:59.660Z,9.73
2022-11-15T03:39:29.346Z,8.73
2022-11-15T03:42:10.917Z,8.97
2022-11-15T03:44:45.803Z,10.57
2022-11-15T03:47:20.675Z,10.40
2022-11-15T03:49:55.303Z,9.53
2022-11-15T03:52:24.833Z,9.23
2022-11-15T03:54:55.080Z,8.57
2022-11-15T03:57:25.975Z,8.87
2022-11-15T03:59:54.276Z,8.57
2022-11-15T04:02:23.154Z,6.93
2022-11-15T04:04:53.421Z,8.03
2022-11-15T04:07:23.937Z,7.37
2022-11-15T04:10:07.164Z,6.83
2022-11-15T04:12:38.346Z,6.23
2022-11-15T04:15:12.393Z,9.63
2022-11-15T04:17:43.225Z,7.10
2022-11-15T04:20:29.201Z,7.37
2022-11-15T04:23:15.205Z,6.17
2022-11-15T04:25:44.465Z,6.07
2022-11-15T04:28:13.039Z,6.53
2022-11-15T04:30:41.388Z,7.77
2022-11-15T04:33:09.705Z,5.33
2022-11-15T04:35:40.245Z,8.07
2022-11-15T04:38:10.758Z,7.70
2022-11-15T04:40:41.333Z,6.23
2022-11-15T04:43:10.766Z,8.27
2022-11-15T04:45:39.749Z,7.90
2022-11-15T04:48:08.374Z,7.07
2022-11-15T04:50:37.053Z,7.07
2022-11-15T04:53:07.198Z,6.63
2022-11-15T04:55:36.687Z,7.50
2022-11-15T04:58:05.577Z,6.47
2022-11-15T05:00:33.802Z,6.90
2022-11-15T05:03:19.070Z,9.40
2022-11-15T05:05:47.366Z,6.93
2022-11-15T05:08:17.785Z,6.57
2022-11-15T05:10:46.221Z,6.17
2022-11-15T05:13:14.301Z,8.83
2022-11-15T05:15:42.704Z,7.07
2022-11-15T05:18:11.257Z,9.17
2022-11-15T05:20:40.599Z,9.67
2022-11-15T05:23:10.876Z,8.13
2022-11-15T05:25:41.419Z,7.30
2022-11-15T05:28:09.661Z,8.97
2022-11-15T05:30:38.912Z,5.60
2022-11-15T05:33:08.965Z,9.03
2022-11-15T05:35:42.602Z,7.07
2022-11-15T05:38:11.361Z,9.10
2022-11-15T05:40:41.272Z,7.87
2022-11-15T05:43:10.336Z,6.37
2022-11-15T05:45:41.514Z,5.93
2022-11-15T05:48:12.454Z,7.37
2022-11-15T05:50:44.065Z,9.00
2022-11-15T05:53:17.170Z,6.20
2022-11-15T05:55:48.597Z,6.67
2022-11-15T05:58:20.106Z,6.77
2022-11-15T06:00:52.846Z,5.70
2022-11-15T06:03:20.914Z,6.17
2022-11-15T06:05:50.375Z,5.23
2022-11-15T06:08:18.839Z,7.03
2022-11-15T06:10:48.839Z,5.53
2022-11-15T06:13:17.262Z,9.23
2022-11-15T06:15:46.052Z,6.97
2022-11-15T06:18:14.251Z,7.33
2022-11-15T06:20:42.437Z,9.27
2022-11-15T06:23:10.527Z,7.13
2022-11-15T06:25:38.956Z,7.60
2022-11-15T06:28:09.223Z,6.13
2022-11-15T06:30:38.061Z,6.67
2022-11-15T06:33:07.806Z,8.67
2022-11-15T06:35:36.835Z,7.50
2022-11-15T06:38:06.581Z,9.47
2022-11-15T06:40:37.671Z,7.63
2022-11-15T06:43:06.491Z,8.07
2022-11-15T06:45:36.474Z,7.37
2022-11-15T06:48:04.844Z,6.30
2022-11-15T06:50:33.020Z,6.07
2022-11-15T06:53:04.220Z,5.47
2022-11-15T06:55:32.927Z,7.13
2022-11-15T06:58:01.460Z,7.37
2022-11-15T07:00:29.977Z,7.30
2022-11-15T07:03:02.054Z,8.30
2022-11-15T07:05:30.917Z,8.87
2022-11-15T07:08:00.475Z,8.17
2022-11-15T07:10:30.269Z,6.90
2022-11-15T07:12:59.832Z,6.80
2022-11-15T07:15:28.598Z,7.27
2022-11-15T07:17:56.712Z,5.97
2022-11-15T07:20:26.422Z,7.60
2022-11-15T07:23:02.233Z,8.87
2022-11-15T07:25:30.810Z,11.23
2022-11-15T07:27:59.282Z,7.33
2022-11-15T07:30:29.392Z,9.87
2022-11-15T07:32:58.279Z,9.37
2022-11-15T07:35:29.709Z,9.30
2022-11-15T07:37:59.672Z,9.67
2022-11-15T07:40:30.334Z,10.07
2022-11-15T07:43:02.085Z,8.63
2022-11-15T07:45:30.443Z,9.13
2022-11-15T07:47:58.975Z,8.67
2022-11-15T07:50:30.846Z,8.83
2022-11-15T07:53:00.345Z,10.43
2022-11-15T07:55:30.782Z,11.20
2022-11-15T07:58:04.435Z,26.67
2022-11-15T08:00:36.152Z,12.87
2022-11-15T08:03:06.795Z,8.00
2022-11-15T08:05:38.445Z,10.23
2022-11-15T08:08:06.697Z,6.47
2022-11-15T08:10:40.418Z,7.50
2022-11-15T08:13:13.293Z,8.63
2022-11-15T08:15:41.983Z,5.90
2022-11-15T08:18:14.412Z,6.60
2022-11-15T08:20:44.506Z,5.23
2022-11-15T08:23:14.164Z,7.57
2022-11-15T08:25:42.285Z,9.63
2022-11-15T08:28:12.649Z,6.13
2022-11-15T08:30:44.157Z,6.93
2022-11-15T08:33:14.299Z,6.77
2022-11-15T08:35:45.906Z,7.37
2022-11-15T08:38:14.510Z,8.27
2022-11-15T08:40:43.024Z,7.80
2022-11-15T08:43:11.513Z,7.77
2022-11-15T08:45:39.790Z,7.23
2022-11-15T08:48:08.011Z,8.10
2022-11-15T08:50:37.280Z,5.57
2022-11-15T08:53:10.755Z,6.80
2022-11-15T08:55:42.428Z,10.50
2022-11-15T08:58:11.082Z,18.03
2022-11-15T09:00:41.157Z,18.80
2022-11-15T09:03:10.348Z,17.57
2022-11-15T09:05:39.696Z,7.07
2022-11-15T09:08:40.407Z,7.03
2022-11-15T09:10:58.184Z,9.17
2022-11-15T09:13:27.025Z,8.40
2022-11-15T09:15:55.328Z,8.03
2022-11-15T09:18:24.980Z,8.83
2022-11-15T09:20:53.395Z,6.57
2022-11-15T09:23:23.599Z,7.43
2022-11-15T09:25:51.771Z,6.43
2022-11-15T09:28:20.060Z,7.17
2022-11-15T09:30:49.481Z,7.63
2022-11-15T09:33:19.595Z,6.40
2022-11-15T09:35:47.944Z,8.03
2022-11-15T09:38:16.671Z,6.03
2022-11-15T09:40:50.568Z,6.43
2022-11-15T09:43:45.995Z,12.63
2022-11-15T09:46:23.325Z,5.90
2022-11-15T09:48:55.928Z,8.07
2022-11-15T09:51:30.241Z,7.63
2022-11-15T09:56:59.022Z,6.80
2022-11-15T09:59:53.682Z,7.40
2022-11-15T10:02:45.779Z,5.77
2022-11-15T10:05:20.012Z,8.13
2022-11-15T10:07:57.015Z,8.37
2022-11-15T10:10:32.739Z,7.53
2022-11-15T10:13:16.442Z,7.13
2022-11-15T10:15:48.909Z,6.23
2022-11-15T10:18:20.771Z,7.30
2022-11-15T10:20:51.413Z,5.83
2022-11-15T10:23:23.281Z,5.90
2022-11-15T10:25:55.445Z,5.87
2022-11-15T10:28:30.438Z,6.47
2022-11-15T10:31:01.086Z,7.30
2022-11-15T10:33:34.945Z,6.27
2022-11-15T10:36:26.507Z,5.93
2022-11-15T10:39:00.031Z,6.83
2022-11-15T10:41:38.744Z,4.67
2022-11-15T10:44:31.530Z,8.10
2022-11-15T10:47:24.965Z,5.87
2022-11-15T10:49:58.443Z,6.93
2022-11-15T10:52:27.183Z,5.90
2022-11-15T10:54:58.927Z,5.37
2022-11-15T10:57:29.724Z,7.53
2022-11-15T11:00:03.111Z,6.53
2022-11-15T11:02:35.444Z,5.77
2022-11-15T11:05:05.163Z,7.77
2022-11-15T11:07:37.090Z,6.70
2022-11-15T11:10:49.781Z,11.60
2022-11-15T11:13:17.436Z,8.27
2022-11-15T11:15:54.050Z,7.27
2022-11-15T11:18:30.531Z,10.07
2022-11-15T11:21:05.393Z,17.53
2022-11-15T11:23:54.551Z,6.80
2022-11-15T11:26:42.574Z,6.57
2022-11-15T11:29:26.679Z,6.80
2022-11-15T11:32:05.676Z,6.03
2022-11-15T11:34:50.152Z,9.17
2022-11-15T11:37:26.623Z,5.67
2022-11-15T11:40:13.042Z,7.60
2022-11-15T11:42:50.705Z,6.10
2022-11-15T11:45:27.428Z,7.23
2022-11-15T11:48:04.897Z,7.00
2022-11-15T11:50:35.965Z,7.53
2022-11-15T11:53:11.029Z,8.67
2022-11-15T11:55:43.391Z,9.37
2022-11-15T11:58:18.853Z,10.00
2022-11-15T12:00:53.634Z,6.87
2022-11-15T12:03:31.283Z,9.40
2022-11-15T12:06:03.937Z,6.70
2022-11-15T12:08:53.031Z,6.47
2022-11-15T12:11:26.427Z,16.87
2022-11-15T12:14:01.283Z,8.63
2022-11-15T12:16:34.210Z,9.03
2022-11-15T12:19:07.898Z,9.13
2022-11-15T12:21:42.997Z,9.20
2022-11-15T12:24:18.108Z,7.37
2022-11-15T12:26:53.890Z,15.03
2022-11-15T12:29:32.195Z,8.77
2022-11-15T12:32:03.597Z,6.67
2022-11-15T12:34:40.762Z,7.23
2022-11-15T12:37:54.959Z,5.50
2022-11-15T12:40:32.310Z,8.20
2022-11-15T12:43:28.022Z,8.43
2022-11-15T12:45:56.166Z,5.10
2022-11-15T12:48:55.567Z,5.97
2022-11-15T12:52:09.635Z,6.07
2022-11-15T12:55:06.281Z,5.97
2022-11-15T12:57:37.392Z,6.47
2022-11-15T13:00:29.736Z,6.07
2022-11-15T13:03:38.235Z,6.63
2022-11-15T13:06:09.875Z,5.17
2022-11-15T13:08:48.691Z,6.17
2022-11-15T13:11:55.016Z,7.30
2022-11-15T13:14:51.077Z,7.07
2022-11-15T13:17:32.508Z,7.97
2022-11-15T13:20:19.313Z,6.70
2022-11-15T13:23:00.257Z,6.80
2022-11-15T13:26:07.002Z,5.90
2022-11-15T13:28:39.827Z,6.67
2022-11-15T13:31:35.651Z,8.13
2022-11-15T13:34:22.926Z,10.27
2022-11-15T13:36:55.293Z,11.13
2022-11-15T13:39:30.740Z,7.97
2022-11-15T13:41:59.339Z,7.80
2022-11-15T13:44:31.250Z,7.63
2022-11-15T13:47:07.854Z,10.77
2022-11-15T13:49:36.961Z,7.87
2022-11-15T13:52:09.824Z,7.03
2022-11-15T13:54:45.333Z,7.40
2022-11-15T13:57:18.375Z,8.37
2022-11-15T13:59:52.637Z,10.97
2022-11-15T14:02:24.197Z,7.80
2022-11-15T14:04:55.902Z,11.77
2022-11-15T14:07:26.832Z,11.37
2022-11-15T14:09:56.212Z,10.57
2022-11-15T14:12:35.551Z,10.03
2022-11-15T14:15:28.735Z,9.80
2022-11-15T14:17:58.990Z,12.37
2022-11-15T14:20:37.702Z,10.97
2022-11-15T14:23:07.878Z,11.47
2022-11-15T14:25:37.608Z,12.57
2022-11-15T14:28:18.438Z,8.20
2022-11-15T14:30:51.841Z,9.33
2022-11-15T14:33:24.769Z,6.97
2022-11-15T14:35:53.515Z,5.33
2022-11-15T14:38:22.344Z,6.40
2022-11-15T14:40:50.493Z,7.13
2022-11-15T14:43:20.475Z,6.23
2022-11-15T14:45:50.357Z,6.00
2022-11-15T14:48:19.573Z,6.60
2022-11-15T14:50:49.339Z,5.37
2022-11-15T14:53:20.258Z,6.47
2022-11-15T14:55:48.899Z,9.43
2022-11-15T14:58:19.074Z,6.63
2022-11-15T15:00:47.778Z,7.40
2022-11-15T15:03:17.803Z,7.43
2022-11-15T15:05:46.556Z,5.57
2022-11-15T15:08:14.839Z,5.90
2022-11-15T15:10:45.645Z,8.90
2022-11-15T15:13:19.312Z,8.30
2022-11-15T15:15:48.381Z,5.53
2022-11-15T15:18:18.568Z,9.83
2022-11-15T15:20:58.230Z,6.03
2022-11-15T15:23:30.498Z,9.17
2022-11-15T15:25:58.638Z,7.37
2022-11-15T15:28:30.000Z,7.27
2022-11-15T15:31:02.308Z,7.97
2022-11-15T15:33:32.361Z,7.53
2022-11-15T15:36:01.404Z,7.07
2022-11-15T15:38:30.055Z,7.30
2022-11-15T15:40:58.451Z,11.80
2022-11-15T15:43:27.128Z,8.93
2022-11-15T15:45:55.646Z,6.77
2022-11-15T15:48:23.908Z,7.63
2022-11-15T15:50:56.630Z,4.80
2022-11-15T15:53:25.462Z,8.97
2022-11-15T15:55:53.581Z,8.23
2022-11-15T15:58:21.876Z,7.63
2022-11-15T16:00:50.067Z,8.47
2022-11-15T16:03:20.057Z,7.17
2022-11-15T16:05:48.589Z,8.20
2022-11-15T16:08:22.549Z,8.80
2022-11-15T16:10:52.223Z,6.20
2022-11-15T16:13:20.452Z,7.50
2022-11-15T16:15:53.353Z,8.00
2022-11-15T16:18:21.866Z,8.10
2022-11-15T16:20:57.743Z,7.53
2022-11-15T16:23:28.773Z,8.23
2022-11-15T16:25:58.188Z,9.53
2022-11-15T16:28:28.526Z,9.00
2022-11-15T16:31:04.286Z,8.67
2022-11-15T16:33:34.632Z,6.73
2022-11-15T16:36:03.256Z,7.70
2022-11-15T16:38:33.345Z,7.63
2022-11-15T16:41:13.488Z,7.50
2022-11-15T16:43:41.819Z,8.13
2022-11-15T16:46:17.420Z,7.20
2022-11-15T16:48:46.463Z,7.40
2022-11-15T16:51:17.044Z,6.37
2022-11-15T16:53:49.127Z,4.43
2022-11-15T16:56:24.757Z,5.93
2022-11-15T16:58:53.251Z,5.87
2022-11-15T17:01:25.511Z,9.63
2022-11-15T17:03:54.806Z,8.27
2022-11-15T17:06:26.743Z,7.90
2022-11-15T17:08:57.077Z,6.80
2022-11-15T17:11:25.497Z,6.23
2022-11-15T17:13:59.459Z,5.33
2022-11-15T17:16:28.749Z,6.60
2022-11-15T17:18:57.119Z,3.80
2022-11-15T17:21:33.375Z,5.50
2022-11-15T17:24:03.720Z,3.93
2022-11-15T17:26:39.182Z,4.23
2022-11-15T17:29:09.519Z,3.97
2022-11-15T17:31:39.263Z,5.77
2022-11-15T17:34:08.489Z,7.47
2022-11-15T17:36:37.528Z,4.30
2022-11-15T17:39:07.683Z,5.73
2022-11-15T17:41:36.368Z,4.63
2022-11-15T17:44:04.757Z,5.83
2022-11-15T17:46:34.210Z,6.50
2022-11-15T17:49:02.934Z,4.87
2022-11-15T17:51:33.564Z,7.57
2022-11-15T17:54:03.831Z,7.73
2022-11-15T17:56:33.915Z,4.70
2022-11-15T17:59:02.583Z,4.53
2022-11-15T18:01:32.862Z,6.20
2022-11-15T18:04:02.526Z,10.37
2022-11-15T18:06:34.345Z,11.80
2022-11-15T18:09:03.510Z,8.13
2022-11-15T18:11:35.606Z,4.47
2022-11-15T18:14:06.643Z,4.67
2022-11-15T18:16:37.539Z,5.17
2022-11-15T18:19:11.498Z,3.60
2022-11-15T18:21:56.760Z,4.63
2022-11-15T18:24:26.475Z,4.57
2022-11-15T18:26:56.362Z,4.90
2022-11-15T18:29:26.836Z,5.33
2022-11-15T18:31:56.317Z,5.93
2022-11-15T18:34:25.595Z,3.90
2022-11-15T18:36:54.540Z,4.37
2022-11-15T18:39:26.479Z,4.20
2022-11-15T18:41:57.671Z,4.93
2022-11-15T18:44:26.407Z,4.80
2022-11-15T18:46:56.522Z,4.40
2022-11-15T18:49:25.103Z,4.70
2022-11-15T18:51:53.714Z,5.53
2022-11-15T18:54:24.496Z,4.73
2022-11-15T18:56:58.579Z,6.17
2022-11-15T18:59:29.173Z,8.17
2022-11-15T19:01:59.639Z,6.10
2022-11-15T19:04:28.042Z,5.10
2022-11-15T19:06:57.381Z,4.47
2022-11-15T19:09:32.947Z,5.67
2022-11-15T19:12:03.168Z,4.37
2022-11-15T19:14:31.744Z,6.33
2022-11-15T19:17:00.470Z,9.83
2022-11-15T19:19:29.211Z,22.03
2022-11-15T19:21:58.819Z,5.50
2022-11-15T19:24:27.936Z,4.73
2022-11-15T19:26:56.695Z,5.40
2022-11-15T19:29:26.578Z,4.27
2022-11-15T19:31:54.975Z,4.43
2022-11-15T19:34:23.481Z,6.90
2022-11-15T19:36:51.608Z,5.30
2022-11-15T19:39:19.719Z,4.87
2022-11-15T19:41:50.200Z,4.57
2022-11-15T19:44:19.388Z,6.60
2022-11-15T19:46:49.562Z,5.33
2022-11-15T19:49:17.630Z,5.30
2022-11-15T19:51:48.584Z,6.00
2022-11-15T19:54:18.802Z,5.57
2022-11-15T19:56:47.065Z,6.77
2022-11-15T19:59:15.365Z,6.03
2022-11-15T20:01:43.855Z,5.53
2022-11-15T20:04:18.069Z,6.97
2022-11-15T20:06:49.756Z,5.07
2022-11-15T20:09:18.806Z,5.97
2022-11-15T20:11:47.234Z,5.70
2022-11-15T20:14:18.717Z,6.00
2022-11-15T20:16:52.964Z,6.30
2022-11-15T20:19:24.827Z,6.07
2022-11-15T20:21:54.728Z,7.03
2022-11-15T20:24:23.111Z,5.77
2022-11-15T20:26:52.595Z,5.97
2022-11-15T20:29:21.416Z,6.53
2022-11-15T20:31:49.967Z,6.30
2022-11-15T20:34:18.582Z,6.10
2022-11-15T20:36:48.685Z,8.60
2022-11-15T20:39:16.777Z,7.47
2022-11-15T20:41:44.946Z,6.23
2022-11-15T20:44:13.975Z,6.70
2022-11-15T20:46:42.592Z,6.57
2022-11-15T20:49:10.910Z,7.37
2022-11-15T20:51:40.758Z,7.20
2022-11-15T20:54:10.942Z,8.93
2022-11-15T20:56:39.404Z,7.30
2022-11-15T20:59:07.963Z,5.40
2022-11-15T21:01:36.724Z,6.03
2022-11-15T21:04:05.553Z,5.73
2022-11-15T21:06:33.953Z,4.93
2022-11-15T21:09:19.046Z,5.10
2022-11-15T21:12:06.097Z,4.63
2022-11-15T21:14:35.046Z,5.77
2022-11-15T21:17:04.640Z,4.53
2022-11-15T21:19:36.819Z,5.10
2022-11-15T21:22:07.802Z,6.33
2022-11-15T21:24:39.215Z,5.30
2022-11-15T21:27:09.535Z,8.13
2022-11-15T21:29:38.252Z,6.70
2022-11-15T21:32:10.231Z,6.63
2022-11-15T21:34:39.864Z,7.30
2022-11-15T21:37:11.321Z,5.70
2022-11-15T21:39:40.431Z,4.27
2022-11-15T21:42:10.827Z,4.13
2022-11-15T21:44:39.355Z,5.60
2022-11-15T21:47:07.857Z,4.10
2022-11-15T21:49:36.331Z,5.97
2022-11-15T21:52:07.669Z,5.97
2022-11-15T21:54:40.464Z,4.83
2022-11-15T21:57:10.835Z,4.97
2022-11-15T22:00:01.998Z,6.03
2022-11-15T22:02:29.800Z,4.70
2022-11-15T22:04:58.153Z,6.27
2022-11-15T22:07:27.434Z,7.43
2022-11-15T22:09:55.752Z,6.70
2022-11-15T22:12:29.522Z,7.67
2022-11-15T22:14:58.260Z,6.03
2022-11-15T22:17:47.364Z,4.10
2022-11-15T22:20:42.849Z,4.20
2022-11-15T22:23:06.783Z,5.53
2022-11-15T22:25:35.558Z,5.27
2022-11-15T22:28:06.084Z,5.90
2022-11-15T22:30:35.105Z,7.80
2022-11-15T22:33:03.539Z,5.93
2022-11-15T22:35:32.255Z,4.63
2022-11-15T22:38:00.727Z,5.47
2022-11-15T22:40:28.927Z,5.17
2022-11-15T22:42:57.561Z,6.57
2022-11-15T22:45:29.066Z,5.00
2022-11-15T22:47:58.567Z,4.53
2022-11-15T22:50:28.707Z,5.17
2022-11-15T22:52:57.298Z,5.40
2022-11-15T22:55:27.577Z,5.30
2022-11-15T22:57:55.660Z,5.57
2022-11-15T23:00:32.149Z,6.27
2022-11-15T23:03:05.049Z,6.23
2022-11-15T23:05:33.575Z,6.80
2022-11-15T23:08:02.204Z,4.97
2022-11-15T23:10:47.456Z,5.90
2022-11-15T23:13:19.539Z,5.07
2022-11-15T23:16:07.684Z,5.47
2022-11-15T23:18:40.967Z,6.07
2022-11-15T23:21:11.266Z,6.63
2022-11-15T23:23:38.715Z,7.60
2022-11-15T23:26:07.553Z,5.67
2022-11-15T23:28:36.593Z,5.53
2022-11-15T23:31:24.079Z,5.80
2022-11-15T23:34:00.626Z,5.80
2022-11-15T23:36:30.421Z,4.03
2022-11-15T23:38:58.846Z,6.80
2022-11-15T23:41:28.407Z,6.07
2022-11-15T23:43:59.174Z,7.23
2022-11-15T23:46:28.192Z,5.63
2022-11-15T23:48:58.836Z,5.67
2022-11-15T23:51:27.843Z,5.57
2022-11-15T23:53:56.365Z,5.90
2022-11-15T23:56:25.067Z,5.60
2022-11-15T23:58:53.279Z,6.57
